Cherry Valley, Ohio
Current Conditions -  °F | °C
As of 7:53 PM on Saturday 25 Oct 2014 (Local Time) from KHZY Reporting Station
Clear Clear  
Wind Chill: 60°   Ceiling: Unl
Heat Index: 60°   Visibility: 10mi
Dew Point: 46°   Wind: 13mph
Humidity: 60%   Direction: 270°W
Pressure: 29.73"   Gusts: NA
Location:  41.6317°N, 80.577°W
Report Text: KHZY 252353Z AUTO 27011KT 10SM CLR 16/08 A2973 RMK AO2 SLP066 T01560078 10189 20156 56004
Loading
Personal Weather Stations






























Interactive Weather Map
Tropical Storm Tracking
New forecast layout! Learn more

10-Day Weather Forecast

Advertisements
Track Severe Weather on mobile